Time;durP1;ratioP1;P1;durP2;ratioP2;P2;SDS_P1;SDS_P2;PMS_P1;PMS_P2;Temp;Humidity;BMP_temperature;BMP_pressure;BME280_temperature;BME280_humidity;BME280_pressure;Samples;Min_cycle;Max_cycle;Signal;HPM_P1;HPM_P2
2023/04/24 00:00:22;;;;;;;25.00;14.40;;;12.10;99.90;11.50;99481;;;;574155;246;24077;-75
2023/04/24 00:02:50;;;;;;;25.13;14.47;;;12.20;99.90;11.50;99478;;;;574245;246;24047;-75
2023/04/24 00:05:18;;;;;;;21.43;13.83;;;12.10;99.90;11.40;99485;;;;573782;246;24041;-79
2023/04/24 00:07:46;;;;;;;20.37;12.77;;;12.10;99.90;11.40;99490;;;;574330;246;24066;-82
2023/04/24 00:10:14;;;;;;;19.00;12.40;;;12.10;99.90;11.30;99481;;;;574389;246;24117;-81
2023/04/24 00:12:45;;;;;;;17.63;12.53;;;12.00;99.90;11.30;99483;;;;574294;246;24086;-79
2023/04/24 00:15:10;;;;;;;18.63;13.90;;;12.00;99.90;11.30;99486;;;;575096;246;24080;-77
2023/04/24 00:17:38;;;;;;;20.70;13.83;;;12.00;99.90;11.30;99485;;;;574624;246;24096;-80
2023/04/24 00:20:06;;;;;;;20.33;13.40;;;11.90;99.90;11.30;99490;;;;574597;246;24047;-78
2023/04/24 00:22:34;;;;;;;17.83;13.70;;;11.90;99.90;11.30;99490;;;;572425;246;24057;-79
2023/04/24 00:25:03;;;;;;;18.53;13.63;;;11.90;99.90;11.20;99484;;;;574211;246;24074;-76
2023/04/24 00:27:31;;;;;;;17.87;13.40;;;11.90;99.90;11.20;99478;;;;574187;246;24078;-81
2023/04/24 00:30:00;;;;;;;19.57;12.97;;;11.90;99.90;11.20;99484;;;;574269;246;24042;-79
2023/04/24 00:32:28;;;;;;;19.40;13.80;;;11.90;99.90;11.20;99484;;;;574075;246;24046;-80
2023/04/24 00:34:56;;;;;;;20.57;14.07;;;11.90;99.90;11.30;99488;;;;574137;246;24124;-81
2023/04/24 00:37:23;;;;;;;19.43;13.40;;;11.90;99.90;11.30;99481;;;;573941;246;24058;-79
2023/04/24 00:39:51;;;;;;;18.90;13.87;;;11.90;99.90;11.20;99476;;;;574473;246;24158;-80
2023/04/24 00:42:19;;;;;;;20.80;14.10;;;11.90;99.90;11.10;99483;;;;574210;246;24046;-80
2023/04/24 00:44:47;;;;;;;21.63;14.20;;;11.80;99.90;11.10;99470;;;;574108;246;24090;-81
2023/04/24 00:47:18;;;;;;;20.90;14.47;;;11.80;99.90;11.10;99469;;;;573691;246;24114;-80
2023/04/24 00:49:43;;;;;;;19.37;14.63;;;11.70;99.90;11.00;99465;;;;582400;246;24201;-80
2023/04/24 00:52:12;;;;;;;21.17;15.67;;;11.70;99.90;10.90;99468;;;;574094;246;24055;-81
2023/04/24 00:54:39;;;;;;;21.43;15.23;;;11.60;99.90;10.90;99473;;;;573846;246;24099;-80
2023/04/24 00:57:07;;;;;;;23.20;15.97;;;11.60;99.90;10.90;99463;;;;573791;246;24117;-76
2023/04/24 00:59:38;;;;;;;25.40;16.97;;;11.50;99.90;10.80;99473;;;;574209;246;24114;-76
2023/04/24 01:02:03;;;;;;;22.13;16.07;;;11.50;99.90;10.80;99471;;;;569700;246;24155;-74
2023/04/24 01:04:31;;;;;;;24.13;18.13;;;11.50;99.90;10.70;99468;;;;571112;246;24057;-79
2023/04/24 01:06:58;;;;;;;26.40;16.73;;;11.50;99.90;10.70;99468;;;;574454;246;24049;-74
2023/04/24 01:09:30;;;;;;;25.40;17.53;;;11.40;99.90;10.70;99469;;;;574492;246;24059;-73
2023/04/24 01:11:54;;;;;;;22.70;17.07;;;11.40;99.90;10.70;99470;;;;573764;246;24080;-74
2023/04/24 01:14:26;;;;;;;28.27;17.40;;;11.40;99.90;10.70;99465;;;;573954;240;24103;-75
2023/04/24 01:16:52;;;;;;;29.63;17.70;;;11.40;99.90;10.70;99462;;;;569320;246;24067;-75
2023/04/24 01:19:21;;;;;;;26.97;17.90;;;11.40;99.90;10.70;99464;;;;574334;246;24059;-76
2023/04/24 01:21:50;;;;;;;27.47;18.70;;;11.40;99.90;10.70;99470;;;;574664;246;24051;-76
2023/04/24 01:24:20;;;;;;;28.90;17.80;;;11.40;99.90;10.70;99465;;;;573872;246;24061;-79
2023/04/24 01:26:45;;;;;;;32.07;18.47;;;11.40;99.90;10.70;99465;;;;575323;246;24113;-78
2023/04/24 01:29:13;;;;;;;34.63;19.13;;;11.40;99.90;10.70;99467;;;;575487;246;24221;-81
2023/04/24 01:31:44;;;;;;;26.70;17.43;;;11.40;99.90;10.70;99474;;;;575197;246;24072;-79
2023/04/24 01:34:12;;;;;;;33.73;18.70;;;11.30;99.90;10.60;99469;;;;574726;246;24061;-77
2023/04/24 01:36:37;;;;;;;36.57;19.67;;;11.30;99.90;10.60;99462;;;;574343;246;24107;-78
2023/04/24 01:39:05;;;;;;;29.43;17.07;;;11.30;99.90;10.60;99470;;;;574524;246;24051;-79
2023/04/24 01:41:36;;;;;;;30.97;18.17;;;11.30;99.90;10.60;99464;;;;574460;246;24093;-80
2023/04/24 01:44:00;;;;;;;31.40;17.47;;;11.30;99.90;10.60;99465;;;;573820;246;24097;-81
2023/04/24 01:46:28;;;;;;;28.00;17.57;;;11.30;99.90;10.60;99456;;;;573643;246;24129;-78
2023/04/24 01:48:59;;;;;;;32.50;18.60;;;11.30;99.90;10.60;99459;;;;574131;246;24059;-74
2023/04/24 01:51:24;;;;;;;30.17;18.37;;;11.30;99.90;10.60;99456;;;;572978;246;24054;-73
2023/04/24 01:53:57;;;;;;;37.30;19.23;;;11.30;99.90;10.60;99451;;;;574179;246;24061;-73
2023/04/24 01:56:24;;;;;;;29.23;17.77;;;11.30;99.90;10.60;99447;;;;572956;240;24093;-75
2023/04/24 01:58:53;;;;;;;26.37;15.93;;;11.30;99.90;10.60;99450;;;;573379;246;24167;-73
2023/04/24 02:01:24;;;;;;;29.27;18.67;;;11.30;99.90;10.60;99431;;;;573072;246;24062;-72
2023/04/24 02:03:49;;;;;;;31.47;18.00;;;11.30;99.90;10.60;99442;;;;572855;246;24069;-72
2023/04/24 02:06:17;;;;;;;31.13;17.03;;;11.30;99.90;10.60;99442;;;;573430;246;24072;-72
2023/04/24 02:08:46;;;;;;;30.27;16.87;;;11.20;99.90;10.50;99440;;;;573551;246;24091;-73
2023/04/24 02:11:14;;;;;;;31.37;16.13;;;11.20;99.90;10.40;99435;;;;573517;246;24112;-73
2023/04/24 02:13:43;;;;;;;31.07;17.53;;;11.10;99.90;10.40;99437;;;;573441;246;24080;-72
2023/04/24 02:16:12;;;;;;;28.10;16.57;;;11.20;99.90;10.40;99419;;;;573477;246;24061;-73
2023/04/24 02:18:40;;;;;;;28.40;17.33;;;11.10;99.90;10.40;99423;;;;573350;246;24071;-73
2023/04/24 02:21:07;;;;;;;29.47;16.13;;;11.10;99.90;10.40;99422;;;;573888;246;24062;-72
2023/04/24 02:23:35;;;;;;;28.43;15.10;;;11.10;99.90;10.40;99418;;;;573815;246;24064;-74
2023/04/24 02:26:03;;;;;;;35.50;17.67;;;11.10;99.90;10.40;99408;;;;573932;246;24124;-76
2023/04/24 02:28:31;;;;;;;29.10;16.93;;;11.10;99.90;10.40;99401;;;;573818;246;24057;-75
2023/04/24 02:31:00;;;;;;;33.97;18.23;;;11.10;99.90;10.40;99408;;;;573886;246;24087;-76
2023/04/24 02:33:27;;;;;;;31.90;16.37;;;11.10;99.90;10.40;99411;;;;573894;246;24076;-78
2023/04/24 02:35:55;;;;;;;30.33;15.90;;;11.10;99.90;10.40;99405;;;;574103;246;24059;-75
2023/04/24 02:38:23;;;;;;;30.17;15.73;;;11.10;99.90;10.30;99405;;;;575953;246;24116;-76
2023/04/24 02:40:51;;;;;;;30.13;14.37;;;11.10;99.90;10.30;99403;;;;575234;246;24049;-75
2023/04/24 02:43:19;;;;;;;26.67;14.57;;;11.00;99.90;10.30;99409;;;;574709;246;24177;-74
2023/04/24 02:45:50;;;;;;;29.53;16.33;;;11.00;99.90;10.20;99406;;;;574527;246;24109;-77
2023/04/24 02:48:15;;;;;;;31.27;16.07;;;11.00;99.90;10.20;99389;;;;573853;244;24071;-75
2023/04/24 02:50:43;;;;;;;23.63;15.57;;;11.00;99.90;10.20;99393;;;;573885;246;24176;-74
2023/04/24 02:53:10;;;;;;;31.17;15.03;;;11.00;99.90;10.20;99395;;;;573533;246;24092;-73
2023/04/24 02:55:38;;;;;;;33.17;14.23;;;10.90;99.90;10.20;99393;;;;574149;246;24043;-73
2023/04/24 02:58:07;;;;;;;35.63;14.97;;;10.90;99.90;10.20;99383;;;;573641;246;24091;-74
2023/04/24 03:00:36;;;;;;;30.83;14.47;;;10.90;99.90;10.20;99390;;;;573686;246;24050;-74
2023/04/24 03:03:07;;;;;;;27.03;14.40;;;10.90;99.90;10.10;99382;;;;573782;246;24091;-74
2023/04/24 03:05:32;;;;;;;31.97;15.17;;;10.90;99.90;10.10;99381;;;;573202;246;24076;-73
2023/04/24 03:08:00;;;;;;;25.87;13.73;;;10.80;99.90;10.10;99368;;;;573851;246;24062;-73
2023/04/24 03:10:32;;;;;;;31.57;14.80;;;10.80;99.90;10.10;99371;;;;573723;246;24055;-75
2023/04/24 03:12:56;;;;;;;30.50;15.70;;;10.80;99.90;10.10;99376;;;;573426;246;24077;-76
2023/04/24 03:15:24;;;;;;;27.90;14.87;;;10.80;99.90;10.10;99374;;;;573492;246;24120;-75
2023/04/24 03:17:52;;;;;;;24.90;13.87;;;10.80;99.90;10.10;99374;;;;573440;246;24083;-73
2023/04/24 03:20:20;;;;;;;26.27;13.27;;;10.80;99.90;10.00;99380;;;;573614;246;24069;-79
2023/04/24 03:22:48;;;;;;;25.60;13.40;;;10.80;99.90;10.10;99370;;;;574430;246;24052;-76
2023/04/24 03:25:16;;;;;;;26.70;12.70;;;10.70;99.90;10.00;99377;;;;574634;246;24051;-73
2023/04/24 03:27:44;;;;;;;20.40;13.00;;;10.80;99.90;10.00;99384;;;;574248;246;24070;-74
2023/04/24 03:30:11;;;;;;;30.57;13.67;;;10.70;99.90;10.00;99378;;;;573436;246;24090;-74
2023/04/24 03:32:39;;;;;;;22.73;12.37;;;10.70;99.90;10.00;99375;;;;573714;246;24112;-74
2023/04/24 03:35:10;;;;;;;23.33;12.87;;;10.80;99.90;10.10;99386;;;;573581;246;24069;-78
2023/04/24 03:37:35;;;;;;;24.30;13.73;;;10.70;99.90;10.10;99378;;;;573797;246;24148;-75
2023/04/24 03:40:06;;;;;;;19.60;11.87;;;10.80;99.90;10.00;99383;;;;574620;246;24083;-75
2023/04/24 03:42:31;;;;;;;21.67;12.33;;;10.70;99.90;10.00;99382;;;;573987;246;24193;-76
2023/04/24 03:44:59;;;;;;;20.37;11.10;;;10.70;99.90;10.00;99373;;;;574466;246;24108;-79
2023/04/24 03:47:27;;;;;;;22.40;11.23;;;10.70;99.90;10.00;99370;;;;574407;246;24046;-79
2023/04/24 03:49:55;;;;;;;24.83;12.83;;;10.70;99.90;10.00;99381;;;;576110;246;24175;-80
2023/04/24 03:52:23;;;;;;;25.63;13.10;;;10.70;99.90;10.00;99384;;;;575566;246;24085;-80
2023/04/24 03:54:51;;;;;;;21.73;12.30;;;10.60;99.90;9.90;99369;;;;575668;246;24061;-81
2023/04/24 03:57:19;;;;;;;24.10;12.87;;;10.60;99.90;9.90;99375;;;;575423;246;24097;-75
2023/04/24 03:59:47;;;;;;;22.03;13.10;;;10.70;99.90;10.00;99373;;;;574069;246;24081;-79
2023/04/24 04:02:15;;;;;;;24.70;12.97;;;10.70;99.90;10.00;99379;;;;574194;246;24106;-75
2023/04/24 04:04:43;;;;;;;20.87;12.20;;;10.70;99.90;9.90;99369;;;;573987;246;24102;-74
2023/04/24 04:07:12;;;;;;;21.97;13.13;;;10.70;99.90;9.90;99362;;;;574204;246;24059;-82
2023/04/24 04:09:39;;;;;;;21.77;12.33;;;10.60;99.90;9.90;99368;;;;574060;246;24058;-78
2023/04/24 04:12:07;;;;;;;19.03;12.30;;;10.60;99.90;9.90;99370;;;;573910;246;24089;-80
2023/04/24 04:14:35;;;;;;;19.87;12.20;;;10.60;99.90;9.90;99365;;;;574156;246;24077;-78
2023/04/24 04:17:03;;;;;;;28.80;14.97;;;10.60;99.90;9.90;99375;;;;573988;246;24066;-78
2023/04/24 04:19:31;;;;;;;22.53;11.97;;;10.60;99.90;9.90;99376;;;;574019;246;24279;-78
2023/04/24 04:21:59;;;;;;;21.27;11.80;;;10.60;99.90;9.90;99373;;;;574374;246;24081;-79
2023/04/24 04:24:28;;;;;;;18.27;11.27;;;10.60;99.90;9.90;99376;;;;574711;246;24145;-77
2023/04/24 04:26:57;;;;;;;21.33;12.23;;;10.60;99.90;9.90;99380;;;;574456;246;24075;-76
2023/04/24 04:29:24;;;;;;;20.20;12.37;;;10.60;99.90;10.00;99379;;;;574028;240;24076;-79
2023/04/24 04:31:52;;;;;;;19.73;11.33;;;10.60;99.90;10.00;99379;;;;574149;246;24054;-78
2023/04/24 04:34:20;;;;;;;20.87;12.33;;;10.70;99.90;10.00;99377;;;;573980;246;24084;-81
2023/04/24 04:36:47;;;;;;;18.00;10.90;;;10.70;99.90;10.00;99372;;;;573956;246;24117;-76
2023/04/24 04:39:16;;;;;;;22.80;10.90;;;10.70;99.90;10.10;99386;;;;573788;246;24100;-77
2023/04/24 04:41:44;;;;;;;23.00;11.90;;;10.80;99.90;10.10;99383;;;;573514;246;24143;-79
2023/04/24 04:44:12;;;;;;;16.37;11.30;;;10.80;99.90;10.20;99391;;;;573753;246;24061;-74
2023/04/24 04:46:39;;;;;;;17.77;11.13;;;10.90;99.90;10.30;99380;;;;573550;246;24104;-78
2023/04/24 04:49:11;;;;;;;16.17;10.73;;;11.00;99.90;10.40;99389;;;;583018;246;24085;-77
2023/04/24 04:51:35;;;;;;;22.77;12.43;;;11.00;99.90;10.40;99387;;;;582812;246;24078;-76
2023/04/24 04:54:03;;;;;;;18.93;11.60;;;11.10;99.90;10.50;99382;;;;583250;246;24069;-80
2023/04/24 04:56:31;;;;;;;16.90;11.13;;;11.20;99.90;10.60;99379;;;;583232;246;24063;-80
2023/04/24 04:58:59;;;;;;;22.67;12.50;;;11.30;99.90;10.70;99386;;;;582846;246;24129;-78
2023/04/24 05:01:27;;;;;;;22.07;13.03;;;11.50;99.90;10.80;99388;;;;584459;240;24116;-80
2023/04/24 05:03:55;;;;;;;19.63;11.67;;;11.40;99.90;10.80;99375;;;;583870;245;24082;-79
2023/04/24 05:06:23;;;;;;;26.27;12.70;;;11.50;99.90;10.80;99367;;;;583873;245;24131;-79
2023/04/24 05:08:55;;;;;;;19.50;12.13;;;11.60;99.90;10.90;99372;;;;583660;245;25121;-79
2023/04/24 05:11:19;;;;;;;17.80;11.50;;;11.60;99.90;11.00;99365;;;;583400;245;24085;-78
2023/04/24 05:13:47;;;;;;;32.10;12.63;;;11.70;99.90;11.00;99364;;;;583461;246;24176;-76
2023/04/24 05:16:15;;;;;;;28.47;11.50;;;11.80;99.90;11.10;99365;;;;583452;245;24110;-79
2023/04/24 05:18:42;;;;;;;16.43;10.93;;;11.80;99.90;11.20;99375;;;;583398;245;24079;-75
2023/04/24 05:21:10;;;;;;;21.53;11.17;;;11.90;99.90;11.30;99371;;;;583249;245;24097;-78
2023/04/24 05:23:39;;;;;;;19.37;11.40;;;12.10;99.90;11.40;99368;;;;583659;245;24067;-79
2023/04/24 05:26:07;;;;;;;15.83;10.03;;;12.10;99.90;11.50;99370;;;;583698;246;24119;-80
2023/04/24 05:28:36;;;;;;;17.80;10.63;;;12.20;99.90;11.50;99358;;;;583867;245;24093;-76
2023/04/24 05:31:04;;;;;;;19.83;10.40;;;12.30;99.90;11.60;99359;;;;583658;245;24067;-76
2023/04/24 05:33:31;;;;;;;15.40;10.60;;;12.30;99.90;11.60;99355;;;;583639;245;24059;-79
2023/04/24 05:35:59;;;;;;;18.37;10.10;;;12.30;99.90;11.60;99364;;;;583613;245;25132;-79
2023/04/24 05:38:28;;;;;;;20.63;11.33;;;12.30;99.90;11.60;99361;;;;583063;246;24091;-80
2023/04/24 05:40:56;;;;;;;21.73;10.10;;;12.20;99.90;11.60;99358;;;;582966;246;24107;-77
2023/04/24 05:43:24;;;;;;;19.33;9.87;;;12.30;99.90;11.60;99363;;;;583074;241;25131;-78
2023/04/24 05:45:53;;;;;;;15.33;10.20;;;12.30;99.90;11.60;99371;;;;582863;246;24077;-74
2023/04/24 05:48:19;;;;;;;13.60;8.77;;;12.30;99.90;11.70;99361;;;;582886;246;24069;-74
2023/04/24 05:50:47;;;;;;;15.33;9.20;;;12.30;99.90;11.60;99353;;;;582713;246;24110;-77
2023/04/24 05:53:15;;;;;;;16.73;9.93;;;12.30;99.90;11.40;99355;;;;583182;246;24089;-74
2023/04/24 05:55:43;;;;;;;16.70;9.40;;;12.20;99.90;11.30;99356;;;;582865;240;24089;-75
2023/04/24 05:58:14;;;;;;;16.03;9.73;;;12.00;99.90;11.20;99358;;;;583052;240;24094;-76
2023/04/24 06:00:42;;;;;;;13.97;9.20;;;11.90;99.90;11.10;99363;;;;582839;246;24085;-76
2023/04/24 06:03:07;;;;;;;14.07;9.67;;;11.80;99.90;11.10;99354;;;;582690;246;24087;-74
2023/04/24 06:05:35;;;;;;;17.80;13.35;;;11.80;99.90;11.20;99354;;;;577843;246;46031;-74
2023/04/24 06:08:06;;;;;;;20.23;12.60;;;11.80;99.90;11.30;99356;;;;582805;246;24079;-74
2023/04/24 06:10:30;;;;;;;21.47;10.77;;;11.90;99.90;11.50;99353;;;;582598;246;24082;-75
2023/04/24 06:13:00;;;;;;;15.83;10.47;;;12.10;99.90;12.20;99356;;;;584408;244;24091;-74
2023/04/24 06:15:26;;;;;;;14.50;10.27;;;12.70;99.90;14.00;99356;;;;583790;240;24092;-79
2023/04/24 06:17:54;;;;;;;15.63;9.90;;;14.20;99.90;15.90;99350;;;;583743;245;24078;-79
2023/04/24 06:20:22;;;;;;;23.70;10.07;;;16.10;99.90;16.80;99357;;;;583582;245;24075;-75
2023/04/24 06:22:50;;;;;;;18.47;10.83;;;17.20;99.90;16.70;99360;;;;583800;245;24070;-75
2023/04/24 06:25:20;;;;;;;16.53;10.63;;;17.50;99.90;16.20;99349;;;;583446;245;24098;-75
2023/04/24 06:27:46;;;;;;;14.67;9.93;;;17.20;99.90;15.80;99352;;;;583601;246;24091;-78
2023/04/24 06:30:13;;;;;;;14.20;9.47;;;16.80;99.90;15.30;99348;;;;583647;245;23097;-75
2023/04/24 06:32:41;;;;;;;16.63;9.17;;;16.30;99.90;15.00;99356;;;;583516;239;24071;-77
2023/04/24 06:35:12;;;;;;;22.40;8.87;;;16.00;99.90;14.70;99352;;;;583548;240;24082;-80
2023/04/24 06:37:37;;;;;;;14.50;7.60;;;15.60;99.90;14.40;99351;;;;583369;246;24101;-76
2023/04/24 06:40:05;;;;;;;19.20;10.60;;;15.30;99.90;14.20;99353;;;;578008;245;35121;-75
2023/04/24 06:42:33;;;;;;;16.93;9.80;;;15.00;99.90;13.80;99346;;;;583202;245;24094;-78
2023/04/24 06:45:01;;;;;;;14.70;8.27;;;14.70;99.90;13.50;99353;;;;583114;245;24074;-75
2023/04/24 06:47:32;;;;;;;20.07;10.60;;;14.30;99.90;13.30;99336;;;;583150;240;24071;-75
2023/04/24 06:49:56;;;;;;;18.80;10.23;;;14.10;99.90;13.10;99347;;;;582752;245;24066;-76
2023/04/24 06:52:24;;;;;;;18.37;9.87;;;13.90;99.90;12.80;99328;;;;582826;241;24075;-79
2023/04/24 06:54:52;;;;;;;16.40;10.50;;;13.60;99.90;12.40;99332;;;;583058;246;24084;-77
2023/04/24 06:57:21;;;;;;;16.33;9.43;;;12.80;99.90;12.00;99343;;;;582902;240;24132;-77
2023/04/24 06:59:49;;;;;;;15.30;9.63;;;12.70;99.90;11.60;99342;;;;583193;246;24085;-78
2023/04/24 07:02:17;;;;;;;12.87;9.90;;;12.40;99.90;11.30;99337;;;;582829;246;24107;-75
2023/04/24 07:04:47;;;;;;;24.77;12.50;;;12.00;99.90;11.10;99336;;;;582818;246;24071;-75
2023/04/24 07:07:14;;;;;;;21.30;11.50;;;11.80;99.90;10.80;99334;;;;582826;246;24064;-76
2023/04/24 07:09:45;;;;;;;16.47;9.93;;;11.50;99.90;10.70;99326;;;;582706;246;24064;-75
2023/04/24 07:12:10;;;;;;;14.57;8.77;;;11.40;99.90;10.70;99324;;;;582269;246;24101;-77
2023/04/24 07:14:40;;;;;;;14.13;9.23;;;11.30;99.90;10.70;99323;;;;582776;246;24071;-76
2023/04/24 07:17:07;;;;;;;20.00;14.63;;;11.30;99.90;10.70;99320;;;;577363;246;39876;-77
2023/04/24 07:19:32;;;;;;;26.58;15.70;;;11.30;99.90;10.70;99318;;;;577508;246;46112;-77
2023/04/24 07:22:01;;;;;;;14.43;9.67;;;11.40;99.90;10.70;99319;;;;582671;246;24094;-75
2023/04/24 07:24:28;;;;;;;20.03;9.90;;;11.40;99.90;10.70;99319;;;;584304;240;24097;-75
2023/04/24 07:26:56;;;;;;;11.27;7.70;;;11.40;99.90;10.80;99324;;;;583910;245;24078;-77
2023/04/24 07:29:24;;;;;;;15.40;9.60;;;11.40;99.90;10.80;99309;;;;584204;245;24101;-75
2023/04/24 07:31:53;;;;;;;10.47;8.50;;;11.50;99.90;10.80;99309;;;;584095;245;24055;-76
2023/04/24 07:34:21;;;;;;;11.33;8.03;;;11.50;99.90;10.90;99311;;;;583703;240;24153;-74
2023/04/24 07:36:49;;;;;;;13.77;8.90;;;11.50;99.90;10.90;99311;;;;583756;245;24110;-74
2023/04/24 07:39:16;;;;;;;11.37;8.70;;;11.60;99.90;10.90;99309;;;;583736;245;24091;-77
2023/04/24 07:41:44;;;;;;;12.80;8.57;;;11.60;99.90;11.00;99298;;;;583240;245;24089;-75
2023/04/24 07:44:12;;;;;;;18.70;8.73;;;11.70;99.90;11.10;99306;;;;583017;245;24077;-75
2023/04/24 07:46:43;;;;;;;14.97;9.03;;;11.80;99.90;11.20;99306;;;;583178;245;24068;-77
2023/04/24 07:49:08;;;;;;;12.77;7.27;;;11.90;99.90;11.30;99307;;;;582752;240;24144;-74
2023/04/24 07:51:38;;;;;;;15.17;9.73;;;12.00;99.90;11.50;99307;;;;583008;245;24093;-74
2023/04/24 07:54:05;;;;;;;11.47;9.37;;;12.20;99.90;11.60;99306;;;;582926;246;24085;-74
2023/04/24 07:56:32;;;;;;;10.07;8.47;;;12.40;99.90;11.70;99306;;;;582984;246;24092;-75
2023/04/24 07:59:01;;;;;;;11.93;8.23;;;12.40;99.90;11.70;99294;;;;583031;240;24106;-75
2023/04/24 08:01:28;;;;;;;9.23;6.67;;;12.50;99.90;11.90;99310;;;;582691;246;24125;-77
2023/04/24 08:03:56;;;;;;;11.07;6.77;;;12.60;99.90;12.00;99299;;;;582972;240;24085;-76
2023/04/24 08:06:27;;;;;;;11.67;8.03;;;12.70;99.90;12.10;99297;;;;582808;240;24101;-74
2023/04/24 08:08:52;;;;;;;9.70;8.07;;;12.80;99.90;12.10;99297;;;;582377;246;24055;-73
2023/04/24 08:11:20;;;;;;;10.73;8.10;;;12.90;99.90;12.20;99293;;;;582990;240;24080;-74
2023/04/24 08:13:48;;;;;;;11.83;8.13;;;12.90;99.90;12.40;99298;;;;583336;246;24077;-73
2023/04/24 08:16:15;;;;;;;12.70;8.17;;;13.10;99.90;12.60;99290;;;;583712;246;24068;-72
2023/04/24 08:18:43;;;;;;;13.03;9.00;;;13.30;99.90;12.70;99289;;;;584000;246;24083;-74
2023/04/24 08:21:16;;;;;;;12.53;8.83;;;13.40;99.90;12.90;99288;;;;583919;246;24115;-75
2023/04/24 08:23:40;;;;;;;13.90;10.10;;;13.80;99.90;13.00;99284;;;;583917;246;24119;-74
2023/04/24 08:26:08;;;;;;;14.93;10.30;;;13.70;99.90;13.20;99279;;;;583712;246;24092;-73
2023/04/24 08:28:36;;;;;;;12.27;9.97;;;14.10;99.90;13.40;99289;;;;583514;246;24111;-74
2023/04/24 08:31:05;;;;;;;13.87;10.37;;;14.10;99.90;13.80;99294;;;;582766;246;24082;-74
2023/04/24 08:33:34;;;;;;;13.33;9.97;;;14.40;99.90;14.00;99289;;;;582928;246;24082;-75
2023/04/24 08:36:04;;;;;;;10.67;9.37;;;15.20;99.90;14.50;99281;;;;584209;244;24066;-75
2023/04/24 08:38:32;;;;;;;15.47;9.87;;;15.80;99.90;15.20;99283;;;;584052;246;24089;-79
2023/04/24 08:41:00;;;;;;;11.50;9.63;;;15.70;99.90;15.80;99276;;;;584237;245;24124;-78
2023/04/24 08:43:28;;;;;;;10.17;8.93;;;16.40;99.90;16.50;99290;;;;583897;245;24070;-75
2023/04/24 08:45:56;;;;;;;11.60;9.50;;;17.10;99.90;17.10;99293;;;;583805;245;24088;-77
2023/04/24 08:48:24;;;;;;;12.77;9.27;;;17.70;99.90;17.60;99300;;;;583799;245;24067;-74
2023/04/24 08:50:55;;;;;;;10.23;9.17;;;18.30;99.90;18.40;99299;;;;583996;240;23080;-81
2023/04/24 08:53:20;;;;;;;12.90;9.73;;;19.00;99.90;19.10;99300;;;;583478;246;23119;-77
2023/04/24 08:55:51;;;;;;;10.37;8.80;;;19.70;99.90;19.60;99297;;;;583117;246;24083;-78
2023/04/24 08:58:15;;;;;;;12.13;9.90;;;20.20;99.90;19.50;99294;;;;582812;246;24128;-77
2023/04/24 09:00:46;;;;;;;14.00;9.33;;;20.40;99.90;19.30;99299;;;;583467;246;24055;-76
2023/04/24 09:03:11;;;;;;;10.30;9.40;;;20.20;99.90;19.00;99299;;;;583491;246;24082;-81
2023/04/24 09:05:40;;;;;;;10.97;9.97;;;20.00;99.90;18.70;99308;;;;583541;245;24109;-77
2023/04/24 09:08:07;;;;;;;11.47;10.27;;;19.70;99.90;18.40;99300;;;;583018;246;23112;-77
2023/04/24 09:10:38;;;;;;;12.07;10.90;;;19.40;99.90;18.20;99310;;;;583414;245;24083;-77
2023/04/24 09:13:03;;;;;;;14.20;10.37;;;19.10;99.90;18.00;99294;;;;582824;246;24063;-79
2023/04/24 09:15:30;;;;;;;11.87;10.23;;;18.80;99.90;17.80;99292;;;;583574;246;24089;-76
2023/04/24 09:17:58;;;;;;;12.30;10.83;;;18.60;99.90;17.60;99290;;;;583211;240;23092;-80
2023/04/24 09:20:27;;;;;;;13.03;11.10;;;18.20;99.90;17.40;99294;;;;583059;246;24071;-80
2023/04/24 09:22:58;;;;;;;12.43;10.80;;;18.10;99.90;17.30;99289;;;;582921;246;24063;-77
2023/04/24 09:25:35;;;;;;;12.60;10.90;;;18.00;99.90;17.10;99288;;;;582739;246;24072;-78
2023/04/24 09:28:05;;;;;;;11.60;10.40;;;17.70;99.90;17.00;99286;;;;582681;244;24076;-76
2023/04/24 09:30:31;;;;;;;12.23;10.37;;;17.60;99.90;16.80;99281;;;;583028;240;24076;-75
2023/04/24 09:33:19;;;;;;;18.50;11.30;;;17.60;99.90;16.80;99276;;;;583284;246;24127;-75
2023/04/24 09:35:46;;;;;;;13.63;11.33;;;17.50;99.90;16.60;99280;;;;583130;246;24121;-77
2023/04/24 09:38:14;;;;;;;14.17;11.37;;;17.30;99.90;16.40;99271;;;;582280;246;24162;-78
2023/04/24 09:40:39;;;;;;;15.90;11.30;;;17.10;99.90;16.20;99264;;;;582644;246;24068;-79
2023/04/24 09:43:07;;;;;;;13.73;12.27;;;17.00;99.90;16.10;99269;;;;582817;240;24052;-80
2023/04/24 09:45:41;;;;;;;16.43;12.37;;;16.80;99.90;16.20;99262;;;;582862;240;24173;-77
2023/04/24 09:48:08;;;;;;;14.00;12.13;;;16.80;99.90;16.80;99263;;;;584341;239;24081;-77
2023/04/24 09:50:34;;;;;;;13.70;12.17;;;17.90;99.90;17.40;99255;;;;583399;246;24129;-76
2023/04/24 09:53:08;;;;;;;13.53;12.13;;;17.90;99.90;17.90;99263;;;;583412;245;24132;-80
2023/04/24 09:55:33;;;;;;;17.00;12.60;;;18.50;99.90;18.20;99265;;;;583262;245;23089;-80
2023/04/24 09:58:04;;;;;;;14.47;11.93;;;18.80;99.90;18.50;99267;;;;583123;246;24126;-77
2023/04/24 10:00:29;;;;;;;16.40;12.40;;;19.20;99.90;18.90;99263;;;;583136;246;24043;-80
2023/04/24 10:03:02;;;;;;;140.97;29.50;;;19.50;99.90;19.20;99263;;;;583117;246;24126;-76
2023/04/24 10:05:33;;;;;;;64.30;19.47;;;19.80;99.90;19.50;99261;;;;583442;245;24106;-79
2023/04/24 10:08:04;;;;;;;22.60;13.80;;;20.20;99.90;20.10;99249;;;;582886;240;25227;-80
2023/04/24 10:10:34;;;;;;;15.53;13.23;;;20.70;99.90;20.50;99261;;;;583152;246;24103;-79
2023/04/24 10:13:02;;;;;;;16.97;14.00;;;21.20;99.90;21.00;99252;;;;582853;240;24075;-81
2023/04/24 10:15:30;;;;;;;14.77;13.27;;;21.70;99.90;21.70;99245;;;;583192;240;24105;-79
2023/04/24 10:18:01;;;;;;;15.83;13.93;;;22.40;99.90;22.30;99256;;;;583101;240;24101;-81
2023/04/24 10:20:36;;;;;;;19.03;13.83;;;23.70;99.90;22.50;99250;;;;582990;246;24067;-78
2023/04/24 10:22:57;;;;;;;16.37;13.23;;;23.60;99.90;22.80;99248;;;;582698;246;24070;-80
2023/04/24 10:25:25;;;;;;;14.60;13.07;;;24.10;99.90;23.20;99256;;;;582360;246;24048;-77
2023/04/24 10:27:57;;;;;;;23.27;13.83;;;24.50;99.90;23.50;99249;;;;582742;244;24153;-80
2023/04/24 10:30:21;;;;;;;19.63;13.57;;;24.90;99.90;23.90;99251;;;;582295;246;27282;-76
2023/04/24 10:32:50;;;;;;;14.50;12.93;;;25.30;97.60;23.90;99253;;;;583003;246;23088;-81
2023/04/24 10:35:17;;;;;;;14.73;13.23;;;25.30;97.50;23.50;99240;;;;583118;246;23150;-79
2023/04/24 10:37:51;;;;;;;14.67;12.63;;;25.00;97.20;23.40;99245;;;;582690;245;24089;-78
2023/04/24 10:40:22;;;;;;;15.40;12.83;;;24.80;96.90;22.80;99241;;;;582453;246;23121;-78
2023/04/24 10:42:50;;;;;;;14.70;12.50;;;24.20;97.50;22.30;99241;;;;582029;246;23112;-75
2023/04/24 10:45:21;;;;;;;16.87;13.63;;;23.60;98.70;22.00;99233;;;;582782;246;24068;-76
2023/04/24 10:48:02;;;;;;;16.77;13.63;;;23.20;99.50;21.70;99240;;;;582477;246;24059;-78
2023/04/24 10:50:29;;;;;;;14.87;13.27;;;22.70;99.90;21.50;99239;;;;582982;246;24133;-75
2023/04/24 10:52:56;;;;;;;15.23;13.63;;;22.40;99.90;21.60;99236;;;;582649;246;24103;-79
2023/04/24 10:55:52;;;;;;;20.07;14.90;;;22.30;99.90;21.40;99237;;;;581251;246;24272;-75
2023/04/24 10:58:24;;;;;;;14.10;12.53;;;22.20;99.90;21.40;99231;;;;582115;244;24092;-77
2023/04/24 11:00:57;;;;;;;15.10;12.10;;;22.10;99.90;21.30;99225;;;;583846;246;24114;-76
2023/04/24 11:03:29;;;;;;;14.93;12.90;;;22.00;99.90;21.20;99234;;;;583442;240;24075;-76
2023/04/24 11:06:03;;;;;;;13.37;12.03;;;21.90;99.90;21.20;99223;;;;583141;246;24086;-75
2023/04/24 11:08:40;;;;;;;15.00;13.10;;;21.90;99.90;21.20;99216;;;;583046;246;24187;-76